createdAt,value
2022-07-25T00:01:14.530Z,14.93
2022-07-25T00:03:42.656Z,14.68
2022-07-25T00:06:13.506Z,14.98
2022-07-25T00:08:45.460Z,15.40
2022-07-25T00:11:13.089Z,14.35
2022-07-25T00:13:40.723Z,15.30
2022-07-25T00:16:10.040Z,15.45
2022-07-25T00:18:37.724Z,15.52
2022-07-25T00:21:05.405Z,15.90
2022-07-25T00:23:33.073Z,16.60
2022-07-25T00:26:00.700Z,16.65
2022-07-25T00:28:28.376Z,16.40
2022-07-25T00:30:56.032Z,14.82
2022-07-25T00:33:25.308Z,15.23
2022-07-25T00:35:52.916Z,14.98
2022-07-25T00:38:20.472Z,15.93
2022-07-25T00:40:54.313Z,15.32
2022-07-25T00:43:23.457Z,15.85
2022-07-25T00:45:51.049Z,15.10
2022-07-25T00:48:19.568Z,15.45
2022-07-25T00:50:48.901Z,17.67
2022-07-25T00:53:16.658Z,16.77
2022-07-25T00:55:44.312Z,17.02
2022-07-25T00:58:11.915Z,17.10
2022-07-25T01:00:39.626Z,18.08
2022-07-25T01:03:07.355Z,15.90
2022-07-25T01:05:35.052Z,16.63
2022-07-25T01:08:04.132Z,17.05
2022-07-25T01:10:32.153Z,17.30
2022-07-25T01:12:59.793Z,17.13
2022-07-25T01:15:27.492Z,16.08
2022-07-25T01:17:55.318Z,16.13
2022-07-25T01:20:25.133Z,16.92
2022-07-25T01:22:52.891Z,15.45
2022-07-25T01:25:20.828Z,17.38
2022-07-25T01:27:54.646Z,16.58
2022-07-25T01:30:24.606Z,15.75
2022-07-25T01:32:52.467Z,14.60
2022-07-25T01:35:20.233Z,14.70
2022-07-25T01:37:49.325Z,16.13
2022-07-25T01:40:17.217Z,16.23
2022-07-25T01:42:44.853Z,15.48
2022-07-25T01:45:13.600Z,15.73
2022-07-25T01:47:41.457Z,15.82
2022-07-25T01:50:09.870Z,15.52
2022-07-25T01:52:37.694Z,14.63
2022-07-25T01:55:07.238Z,13.88
2022-07-25T01:57:36.236Z,14.77
2022-07-25T02:00:04.999Z,14.23
2022-07-25T02:02:39.723Z,15.55
2022-07-25T02:05:08.027Z,14.65
2022-07-25T02:07:35.803Z,14.73
2022-07-25T02:10:03.747Z,14.40
2022-07-25T02:12:33.029Z,13.25
2022-07-25T02:15:00.647Z,13.15
2022-07-25T02:17:28.372Z,13.15
2022-07-25T02:19:56.049Z,13.82
2022-07-25T02:22:24.030Z,13.23
2022-07-25T02:24:52.055Z,13.50
2022-07-25T02:27:20.111Z,11.93
2022-07-25T02:29:49.258Z,12.35
2022-07-25T02:32:16.907Z,11.90
2022-07-25T02:34:44.751Z,11.98
2022-07-25T02:37:12.959Z,11.10
2022-07-25T02:39:40.529Z,11.20
2022-07-25T02:42:08.365Z,10.82
2022-07-25T02:44:36.031Z,10.48
2022-07-25T02:47:04.952Z,10.50
2022-07-25T02:49:32.520Z,10.30
2022-07-25T02:52:00.272Z,10.13
2022-07-25T02:54:27.817Z,9.85
2022-07-25T02:56:55.553Z,9.52
2022-07-25T02:59:23.389Z,9.35
2022-07-25T03:01:51.018Z,9.45
2022-07-25T03:04:20.146Z,8.00
2022-07-25T03:06:47.798Z,8.63
2022-07-25T03:09:15.414Z,8.07
2022-07-25T03:11:42.987Z,7.88
2022-07-25T03:14:10.743Z,7.63
2022-07-25T03:16:38.522Z,7.72
2022-07-25T03:19:10.140Z,7.88
2022-07-25T03:21:39.407Z,8.15
2022-07-25T03:24:07.622Z,7.90
2022-07-25T03:26:35.313Z,7.85
2022-07-25T03:29:03.192Z,8.82
2022-07-25T03:31:30.839Z,7.88
2022-07-25T03:33:58.585Z,8.32
2022-07-25T03:36:26.276Z,8.80
2022-07-25T03:38:56.616Z,7.97
2022-07-25T03:41:24.476Z,9.88
2022-07-25T03:43:55.580Z,7.80
2022-07-25T03:46:23.191Z,7.95
2022-07-25T03:48:50.977Z,8.23
2022-07-25T03:51:18.589Z,7.97
2022-07-25T03:54:05.277Z,7.20
2022-07-25T03:56:43.444Z,7.18
2022-07-25T03:59:13.389Z,7.07
2022-07-25T04:01:41.576Z,6.88
2022-07-25T04:04:10.035Z,6.70
2022-07-25T04:06:38.099Z,5.80
2022-07-25T04:09:05.716Z,5.53
2022-07-25T04:11:35.814Z,5.50
2022-07-25T04:14:03.985Z,5.65
2022-07-25T04:16:32.236Z,5.60
2022-07-25T04:19:01.182Z,5.07
2022-07-25T04:21:29.360Z,4.75
2022-07-25T04:23:57.708Z,5.10
2022-07-25T04:26:25.650Z,5.18
2022-07-25T04:28:54.664Z,4.80
2022-07-25T04:31:22.332Z,4.95
2022-07-25T04:33:49.924Z,4.57
2022-07-25T04:36:17.547Z,4.60
2022-07-25T04:38:45.553Z,5.00
2022-07-25T04:41:13.171Z,5.20
2022-07-25T04:43:44.897Z,4.90
2022-07-25T04:46:20.092Z,4.60
2022-07-25T04:48:48.185Z,4.53
2022-07-25T04:51:15.943Z,4.30
2022-07-25T04:53:43.540Z,4.68
2022-07-25T04:56:11.143Z,4.20
2022-07-25T04:58:38.886Z,4.60
2022-07-25T05:01:07.232Z,4.15
2022-07-25T05:03:36.188Z,4.53
2022-07-25T05:06:03.845Z,4.30
2022-07-25T05:08:31.469Z,4.35
2022-07-25T05:10:59.042Z,4.63
2022-07-25T05:13:26.595Z,4.18
2022-07-25T05:15:54.231Z,4.30
2022-07-25T05:18:21.975Z,4.22
2022-07-25T05:20:51.353Z,4.68
2022-07-25T05:23:18.966Z,4.68
2022-07-25T05:25:46.707Z,4.90
2022-07-25T05:28:14.796Z,4.28
2022-07-25T05:30:42.397Z,4.40
2022-07-25T05:33:09.967Z,4.15
2022-07-25T05:35:37.534Z,4.40
2022-07-25T05:38:06.498Z,4.20
2022-07-25T05:40:34.146Z,4.00
2022-07-25T05:43:03.552Z,4.07
2022-07-25T05:45:31.560Z,4.05
2022-07-25T05:47:59.154Z,4.10
2022-07-25T05:50:26.813Z,4.50
2022-07-25T05:52:54.406Z,3.97
2022-07-25T05:55:23.428Z,3.92
2022-07-25T05:57:51.041Z,4.03
2022-07-25T06:00:18.737Z,3.95
2022-07-25T06:02:46.502Z,3.97
2022-07-25T06:05:14.218Z,4.20
2022-07-25T06:07:42.203Z,4.10
2022-07-25T06:10:10.162Z,4.30
2022-07-25T06:12:39.064Z,4.05
2022-07-25T06:15:12.518Z,4.20
2022-07-25T06:17:49.810Z,4.20
2022-07-25T06:20:17.378Z,4.22
2022-07-25T06:22:44.984Z,4.22
2022-07-25T06:25:12.792Z,4.30
2022-07-25T06:27:42.231Z,3.90
2022-07-25T06:30:19.205Z,4.20
2022-07-25T06:32:47.708Z,4.53
2022-07-25T06:35:15.250Z,4.47
2022-07-25T06:37:42.973Z,4.57
2022-07-25T06:40:11.018Z,4.18
2022-07-25T06:42:39.266Z,4.43
2022-07-25T06:45:09.864Z,4.75
2022-07-25T06:47:37.788Z,4.40
2022-07-25T06:50:05.870Z,4.93
2022-07-25T06:52:35.451Z,4.55
2022-07-25T06:55:03.797Z,4.85
2022-07-25T06:57:31.396Z,4.20
2022-07-25T06:59:59.356Z,4.65
2022-07-25T07:02:28.267Z,4.85
2022-07-25T07:04:55.923Z,4.32
2022-07-25T07:07:23.749Z,4.43
2022-07-25T07:09:51.321Z,4.47
2022-07-25T07:12:18.891Z,4.78
2022-07-25T07:14:46.508Z,5.35
2022-07-25T07:17:14.080Z,5.03
2022-07-25T07:19:45.707Z,4.85
2022-07-25T07:22:13.507Z,5.32
2022-07-25T07:24:44.087Z,5.32
2022-07-25T07:27:12.777Z,5.07
2022-07-25T07:29:40.435Z,5.00
2022-07-25T07:32:08.092Z,5.05
2022-07-25T07:34:35.936Z,5.25
2022-07-25T07:37:04.917Z,5.15
2022-07-25T07:39:32.485Z,5.15
2022-07-25T07:42:00.087Z,4.97
2022-07-25T07:44:27.645Z,5.50
2022-07-25T07:46:55.480Z,5.43
2022-07-25T07:49:23.150Z,6.03
2022-07-25T07:51:50.929Z,5.53
2022-07-25T07:54:37.204Z,5.55
2022-07-25T07:57:04.884Z,6.20
2022-07-25T07:59:32.471Z,6.07
2022-07-25T08:02:00.367Z,5.78
2022-07-25T08:04:27.954Z,5.97
2022-07-25T08:06:55.501Z,5.85
2022-07-25T08:09:25.955Z,6.10
2022-07-25T08:11:53.564Z,5.85
2022-07-25T08:14:21.125Z,6.82
2022-07-25T08:16:48.745Z,6.50
2022-07-25T08:19:16.591Z,6.40
2022-07-25T08:21:44.136Z,6.38
2022-07-25T08:24:14.785Z,6.88
2022-07-25T08:26:43.702Z,7.05
2022-07-25T08:29:19.463Z,7.03
2022-07-25T08:31:48.348Z,7.13
2022-07-25T08:34:16.142Z,6.75
2022-07-25T08:36:43.842Z,6.90
2022-07-25T08:39:11.401Z,6.93
2022-07-25T08:41:40.645Z,7.00
2022-07-25T08:44:10.023Z,6.75
2022-07-25T08:46:38.761Z,7.22
2022-07-25T08:49:06.534Z,6.10
2022-07-25T08:51:34.214Z,6.75
2022-07-25T08:54:03.551Z,7.60
2022-07-25T08:56:31.325Z,6.53
2022-07-25T08:58:58.899Z,7.95
2022-07-25T09:01:31.666Z,7.40
2022-07-25T09:04:02.884Z,7.15
2022-07-25T09:06:30.581Z,6.72
2022-07-25T09:08:59.418Z,6.65
2022-07-25T09:11:31.478Z,6.95
2022-07-25T09:14:04.853Z,7.30
2022-07-25T09:16:35.518Z,7.25
2022-07-25T09:19:07.139Z,6.70
2022-07-25T09:21:34.780Z,6.93
2022-07-25T09:24:09.417Z,7.18
2022-07-25T09:26:44.259Z,7.88
2022-07-25T09:29:17.208Z,7.68
2022-07-25T09:31:46.257Z,7.25
2022-07-25T09:34:14.061Z,7.65
2022-07-25T09:36:51.573Z,7.47
2022-07-25T09:39:19.177Z,7.10
2022-07-25T09:41:46.713Z,7.05
2022-07-25T09:44:18.288Z,7.75
2022-07-25T09:46:47.448Z,6.88
2022-07-25T09:49:15.371Z,7.43
2022-07-25T09:51:43.020Z,7.50
2022-07-25T09:54:10.883Z,6.85
2022-07-25T09:56:38.526Z,7.75
2022-07-25T09:59:06.889Z,7.63
2022-07-25T10:01:36.154Z,8.15
2022-07-25T10:04:10.746Z,7.45
2022-07-25T10:06:40.394Z,7.47
2022-07-25T10:09:11.543Z,7.55
2022-07-25T10:11:39.148Z,6.95
2022-07-25T10:14:11.090Z,8.35
2022-07-25T10:16:45.882Z,7.20
2022-07-25T10:19:15.151Z,7.70
2022-07-25T10:21:42.792Z,7.22
2022-07-25T10:24:11.725Z,7.32
2022-07-25T10:26:40.706Z,7.30
2022-07-25T10:29:08.960Z,7.38
2022-07-25T10:31:37.080Z,6.93
2022-07-25T10:34:06.277Z,7.13
2022-07-25T10:36:45.732Z,6.63
2022-07-25T10:39:14.309Z,6.80
2022-07-25T10:41:43.111Z,6.93
2022-07-25T10:44:13.723Z,7.43
2022-07-25T10:46:43.974Z,7.68
2022-07-25T10:49:18.339Z,7.75
2022-07-25T10:51:53.117Z,6.93
2022-07-25T10:54:22.752Z,7.88
2022-07-25T10:56:54.912Z,7.18
2022-07-25T10:59:27.385Z,7.22
2022-07-25T11:01:55.393Z,8.25
2022-07-25T11:04:23.000Z,7.80
2022-07-25T11:06:51.928Z,8.38
2022-07-25T11:09:25.100Z,8.07
2022-07-25T11:11:55.731Z,7.80
2022-07-25T11:14:24.331Z,8.48
2022-07-25T11:16:53.240Z,7.32
2022-07-25T11:19:22.205Z,8.20
2022-07-25T11:21:50.476Z,8.23
2022-07-25T11:24:19.632Z,8.07
2022-07-25T11:26:48.480Z,7.57
2022-07-25T11:29:19.687Z,7.95
2022-07-25T11:31:53.174Z,7.78
2022-07-25T11:34:23.101Z,7.78
2022-07-25T11:36:51.383Z,7.55
2022-07-25T11:39:20.453Z,7.47
2022-07-25T11:41:48.088Z,7.93
2022-07-25T11:44:16.006Z,7.72
2022-07-25T11:46:44.869Z,8.00
2022-07-25T11:49:13.001Z,8.55
2022-07-25T11:51:41.754Z,7.85
2022-07-25T11:54:10.579Z,7.93
2022-07-25T11:56:42.952Z,7.68
2022-07-25T11:59:11.919Z,7.55
2022-07-25T12:01:40.553Z,7.80
2022-07-25T12:04:12.086Z,7.65
2022-07-25T12:06:40.395Z,7.47
2022-07-25T12:09:16.313Z,7.70
2022-07-25T12:11:48.736Z,7.88
2022-07-25T12:14:16.706Z,8.10
2022-07-25T12:16:44.353Z,7.90
2022-07-25T12:19:19.394Z,8.43
2022-07-25T12:21:47.026Z,7.70
2022-07-25T12:24:14.640Z,8.15
2022-07-25T12:26:42.461Z,8.50
2022-07-25T12:29:11.459Z,8.30
2022-07-25T12:31:39.053Z,7.88
2022-07-25T12:34:06.898Z,8.18
2022-07-25T12:36:35.588Z,7.90
2022-07-25T12:39:03.607Z,8.27
2022-07-25T12:41:31.419Z,8.45
2022-07-25T12:44:00.408Z,8.15
2022-07-25T12:46:29.544Z,9.95
2022-07-25T12:48:57.186Z,10.07
2022-07-25T12:51:24.791Z,9.20
2022-07-25T12:53:52.405Z,8.32
2022-07-25T12:56:19.962Z,7.93
2022-07-25T12:58:47.548Z,7.97
2022-07-25T13:01:15.421Z,7.50
2022-07-25T13:03:44.494Z,7.35
2022-07-25T13:06:12.088Z,7.35
2022-07-25T13:08:39.693Z,7.25
2022-07-25T13:11:07.314Z,7.30
2022-07-25T13:13:34.916Z,8.00
2022-07-25T13:16:02.634Z,7.20
2022-07-25T13:18:30.560Z,7.55
2022-07-25T13:21:00.610Z,7.10
2022-07-25T13:23:28.394Z,7.00
2022-07-25T13:25:56.112Z,7.28
2022-07-25T13:28:23.801Z,6.82
2022-07-25T13:30:51.390Z,6.80
2022-07-25T13:33:19.316Z,7.60
2022-07-25T13:35:47.213Z,8.35
2022-07-25T13:38:16.156Z,7.10
2022-07-25T13:40:43.835Z,6.88
2022-07-25T13:43:12.145Z,7.10
2022-07-25T13:45:40.261Z,7.10
2022-07-25T13:50:55.762Z,8.20
2022-07-25T13:53:29.759Z,7.65
2022-07-25T13:55:58.015Z,8.20
2022-07-25T13:58:25.997Z,7.65
2022-07-25T14:00:54.298Z,9.27
2022-07-25T14:03:21.931Z,8.88
2022-07-25T14:05:49.818Z,9.10
2022-07-25T14:08:17.457Z,9.75
2022-07-25T14:10:46.374Z,10.10
2022-07-25T14:13:13.967Z,11.05
2022-07-25T14:15:41.567Z,11.10
2022-07-25T14:18:10.061Z,11.20
2022-07-25T14:20:37.684Z,10.48
2022-07-25T14:23:05.493Z,10.75
2022-07-25T14:25:33.098Z,10.63
2022-07-25T14:28:02.160Z,11.25
2022-07-25T14:30:29.726Z,9.98
2022-07-25T14:32:57.671Z,9.73
2022-07-25T14:35:31.854Z,8.07
2022-07-25T14:38:00.032Z,7.53
2022-07-25T14:40:27.797Z,6.80
2022-07-25T14:42:55.519Z,6.47
2022-07-25T14:45:24.557Z,6.05
2022-07-25T14:47:52.228Z,5.90
2022-07-25T14:50:19.805Z,5.60
2022-07-25T14:52:47.412Z,5.82
2022-07-25T14:55:15.004Z,4.93
2022-07-25T14:57:44.713Z,4.70
2022-07-25T15:00:12.721Z,4.32
2022-07-25T15:02:41.642Z,4.20
2022-07-25T15:05:09.562Z,3.80
2022-07-25T15:07:37.696Z,4.47
2022-07-25T15:10:05.920Z,4.47
2022-07-25T15:12:33.518Z,4.57
2022-07-25T15:15:01.110Z,4.22
2022-07-25T15:17:29.062Z,4.18
2022-07-25T15:19:57.980Z,4.15
2022-07-25T15:22:25.626Z,4.78
2022-07-25T15:27:40.932Z,4.63
2022-07-25T15:30:09.175Z,4.15
2022-07-25T15:32:37.349Z,4.25
2022-07-25T15:35:07.146Z,4.90
2022-07-25T15:37:34.837Z,4.85
2022-07-25T15:40:02.525Z,4.53
2022-07-25T15:42:30.625Z,4.60
2022-07-25T15:45:30.410Z,6.72
2022-07-25T15:47:50.650Z,7.20
2022-07-25T15:50:20.033Z,13.35
2022-07-25T15:52:48.233Z,13.30
2022-07-25T15:55:18.069Z,5.53
2022-07-25T15:57:45.664Z,6.10
2022-07-25T16:00:13.715Z,7.20
2022-07-25T16:02:41.476Z,7.82
2022-07-25T16:05:10.004Z,7.20
2022-07-25T16:07:38.984Z,7.53
2022-07-25T16:10:07.148Z,7.63
2022-07-25T16:12:34.984Z,6.95
2022-07-25T16:15:02.725Z,7.43
2022-07-25T16:17:31.261Z,7.70
2022-07-25T16:19:58.901Z,8.32
2022-07-25T16:22:26.708Z,7.30
2022-07-25T16:24:55.635Z,9.50
2022-07-25T16:27:23.203Z,8.23
2022-07-25T16:29:50.926Z,7.50
2022-07-25T16:32:18.741Z,7.35
2022-07-25T16:34:47.309Z,7.75
2022-07-25T16:37:14.886Z,7.75
2022-07-25T16:39:42.521Z,8.77
2022-07-25T16:42:11.464Z,9.00
2022-07-25T16:44:39.050Z,8.63
2022-07-25T16:47:08.140Z,8.77
2022-07-25T16:49:35.727Z,9.25
2022-07-25T16:52:03.339Z,8.40
2022-07-25T16:54:31.237Z,8.88
2022-07-25T16:56:59.887Z,8.23
2022-07-25T16:59:29.020Z,8.88
2022-07-25T17:01:56.788Z,9.15
2022-07-25T17:04:24.436Z,9.18
2022-07-25T17:06:52.374Z,8.68
2022-07-25T17:09:19.965Z,9.38
2022-07-25T17:11:47.550Z,7.93
2022-07-25T17:14:15.133Z,6.82
2022-07-25T17:16:44.727Z,6.55
2022-07-25T17:19:12.391Z,5.20
2022-07-25T17:21:40.088Z,5.82
2022-07-25T17:24:08.114Z,5.70
2022-07-25T17:26:36.252Z,4.63
2022-07-25T17:29:04.016Z,4.85
2022-07-25T17:31:31.830Z,4.50
2022-07-25T17:34:00.919Z,4.22
2022-07-25T17:36:28.720Z,4.80
2022-07-25T17:38:56.504Z,4.30
2022-07-25T17:41:24.045Z,4.50
2022-07-25T17:43:51.628Z,4.45
2022-07-25T17:46:19.228Z,4.40
2022-07-25T17:48:47.358Z,4.82
2022-07-25T17:51:16.318Z,4.22
2022-07-25T17:53:43.916Z,4.32
2022-07-25T17:56:11.512Z,4.18
2022-07-25T17:58:39.094Z,4.03
2022-07-25T18:01:10.244Z,4.03
2022-07-25T18:03:38.530Z,4.85
2022-07-25T18:06:06.411Z,4.45
2022-07-25T18:08:35.986Z,4.88
2022-07-25T18:11:04.325Z,4.78
2022-07-25T18:13:31.960Z,4.82
2022-07-25T18:15:59.749Z,4.45
2022-07-25T18:18:27.724Z,4.63
2022-07-25T18:20:55.360Z,5.50
2022-07-25T18:23:24.152Z,4.93
2022-07-25T18:25:54.243Z,4.68
2022-07-25T18:28:22.019Z,5.18
2022-07-25T18:30:49.623Z,4.93
2022-07-25T18:33:17.497Z,5.40
2022-07-25T18:35:45.052Z,4.85
2022-07-25T18:38:12.662Z,4.47
2022-07-25T18:40:40.485Z,4.70
2022-07-25T18:43:09.332Z,5.18
2022-07-25T18:45:38.489Z,5.30
2022-07-25T18:48:07.435Z,4.28
2022-07-25T18:50:35.052Z,4.85
2022-07-25T18:53:02.666Z,4.45
2022-07-25T18:55:30.271Z,4.93
2022-07-25T18:57:57.831Z,4.68
2022-07-25T19:00:26.824Z,4.78
2022-07-25T19:02:54.356Z,4.72
2022-07-25T19:05:22.176Z,5.03
2022-07-25T19:07:49.840Z,4.60
2022-07-25T19:10:17.395Z,5.03
2022-07-25T19:12:44.991Z,4.80
2022-07-25T19:15:12.571Z,3.90
2022-07-25T19:17:41.536Z,4.53
2022-07-25T19:20:10.455Z,4.18
2022-07-25T19:22:38.227Z,4.40
2022-07-25T19:25:08.299Z,4.05
2022-07-25T19:27:36.268Z,3.97
2022-07-25T19:30:06.804Z,4.43
2022-07-25T19:32:34.944Z,4.40
2022-07-25T19:35:04.588Z,4.00
2022-07-25T19:37:33.508Z,4.25
2022-07-25T19:40:01.549Z,4.18
2022-07-25T19:42:29.211Z,4.40
2022-07-25T19:44:57.106Z,4.10
2022-07-25T19:47:24.748Z,4.10
2022-07-25T19:49:52.674Z,4.20
2022-07-25T19:52:21.807Z,3.95
2022-07-25T19:54:49.463Z,3.95
2022-07-25T19:57:17.099Z,4.05
2022-07-25T19:59:44.680Z,3.45
2022-07-25T20:02:12.634Z,3.88
2022-07-25T20:04:40.312Z,4.18
2022-07-25T20:07:07.933Z,4.10
2022-07-25T20:09:36.866Z,3.83
2022-07-25T20:12:04.647Z,3.72
2022-07-25T20:14:32.267Z,4.00
2022-07-25T20:16:59.939Z,3.40
2022-07-25T20:19:27.522Z,3.22
2022-07-25T20:21:57.339Z,3.63
2022-07-25T20:24:24.928Z,3.50
2022-07-25T20:26:53.820Z,3.70
2022-07-25T20:29:21.388Z,3.40
2022-07-25T20:31:49.125Z,4.20
2022-07-25T20:34:17.072Z,4.00
2022-07-25T20:36:47.294Z,4.18
2022-07-25T20:39:14.866Z,3.25
2022-07-25T20:41:42.524Z,4.22
2022-07-25T20:44:13.619Z,3.67
2022-07-25T20:46:41.230Z,3.90
2022-07-25T20:49:09.568Z,3.85
2022-07-25T20:51:39.588Z,3.70
2022-07-25T20:54:07.941Z,3.83
2022-07-25T20:56:35.532Z,3.85
2022-07-25T20:59:04.221Z,3.50
2022-07-25T21:01:33.413Z,3.33
2022-07-25T21:04:05.591Z,4.10
2022-07-25T21:06:34.919Z,4.20
2022-07-25T21:09:05.348Z,3.95
2022-07-25T21:11:33.454Z,4.22
2022-07-25T21:14:01.158Z,3.70
2022-07-25T21:16:29.149Z,4.00
2022-07-25T21:18:58.518Z,4.80
2022-07-25T21:21:26.512Z,4.50
2022-07-25T21:23:54.461Z,4.70
2022-07-25T21:26:22.070Z,4.38
2022-07-25T21:28:49.678Z,4.75
2022-07-25T21:31:18.227Z,4.10
2022-07-25T21:33:45.827Z,4.20
2022-07-25T21:36:14.850Z,5.10
2022-07-25T21:38:42.677Z,5.28
2022-07-25T21:41:10.257Z,5.50
2022-07-25T21:43:37.903Z,5.53
2022-07-25T21:46:05.666Z,5.05
2022-07-25T21:49:05.561Z,5.00
2022-07-25T21:51:40.508Z,4.93
2022-07-25T21:54:09.003Z,5.80
2022-07-25T21:56:36.666Z,5.05
2022-07-25T21:59:04.544Z,5.10
2022-07-25T22:01:32.649Z,5.95
2022-07-25T22:04:00.523Z,5.72
2022-07-25T22:06:28.146Z,5.78
2022-07-25T22:08:57.380Z,5.40
2022-07-25T22:11:42.562Z,6.68
2022-07-25T22:14:13.514Z,4.75
2022-07-25T22:16:41.150Z,5.65
2022-07-25T22:19:09.239Z,4.78
2022-07-25T22:21:37.146Z,4.95
2022-07-25T22:24:06.536Z,4.75
2022-07-25T22:26:34.160Z,4.85
2022-07-25T22:29:01.776Z,5.05
2022-07-25T22:31:29.625Z,4.88
2022-07-25T22:33:57.253Z,4.90
2022-07-25T22:36:24.925Z,4.78
2022-07-25T22:38:52.980Z,4.70
2022-07-25T22:41:21.909Z,4.40
2022-07-25T22:43:57.256Z,4.53
2022-07-25T22:46:26.999Z,4.10
2022-07-25T22:48:54.726Z,4.75
2022-07-25T22:51:22.370Z,3.90
2022-07-25T22:53:49.983Z,4.57
2022-07-25T22:56:17.932Z,4.28
2022-07-25T22:58:49.042Z,4.38
2022-07-25T23:01:17.149Z,4.93
2022-07-25T23:03:44.810Z,4.38
2022-07-25T23:06:12.536Z,4.03
2022-07-25T23:08:40.154Z,4.03
2022-07-25T23:11:07.924Z,3.53
2022-07-25T23:13:36.286Z,3.22
2022-07-25T23:16:05.743Z,3.15
2022-07-25T23:18:38.172Z,3.60
2022-07-25T23:21:05.931Z,3.45
2022-07-25T23:23:33.688Z,3.50
2022-07-25T23:26:01.580Z,3.20
2022-07-25T23:28:29.285Z,3.42
2022-07-25T23:30:56.829Z,3.47
2022-07-25T23:33:26.090Z,3.38
2022-07-25T23:35:53.749Z,3.47
2022-07-25T23:38:21.633Z,3.28
2022-07-25T23:40:49.319Z,3.13
2022-07-25T23:43:26.768Z,2.88
2022-07-25T23:46:04.745Z,2.97
2022-07-25T23:48:35.561Z,2.97
2022-07-25T23:51:03.233Z,3.75
2022-07-25T23:53:34.480Z,3.28
2022-07-25T23:56:02.065Z,2.75
2022-07-25T23:58:29.921Z,2.78
